createdAt,value
2023-05-13T00:02:22.344Z,2.10
2023-05-13T00:05:24.587Z,2.03
2023-05-13T00:08:26.815Z,2.45
2023-05-13T00:11:30.503Z,2.33
2023-05-13T00:14:32.755Z,2.00
2023-05-13T00:17:35.109Z,2.13
2023-05-13T00:20:37.457Z,2.10
2023-05-13T00:23:39.666Z,2.30
2023-05-13T00:26:43.214Z,2.20
2023-05-13T00:29:46.629Z,2.38
2023-05-13T00:32:49.132Z,2.03
2023-05-13T00:35:51.445Z,1.88
2023-05-13T00:38:53.725Z,2.13
2023-05-13T00:41:59.938Z,2.63
2023-05-13T00:45:02.142Z,2.72
2023-05-13T00:48:06.314Z,2.70
2023-05-13T00:51:08.572Z,2.08
2023-05-13T00:54:10.900Z,2.60
2023-05-13T00:57:14.521Z,2.78
2023-05-13T01:00:17.223Z,2.63
2023-05-13T01:03:24.104Z,3.10
2023-05-13T01:06:35.471Z,2.80
2023-05-13T01:09:47.988Z,2.85
2023-05-13T01:12:54.141Z,3.40
2023-05-13T01:16:00.388Z,3.22
2023-05-13T01:19:17.462Z,4.10
2023-05-13T01:22:21.035Z,4.10
2023-05-13T01:25:23.775Z,4.03
2023-05-13T01:28:26.089Z,4.13
2023-05-13T01:31:29.756Z,4.13
2023-05-13T01:34:32.348Z,3.35
2023-05-13T01:37:36.571Z,3.78
2023-05-13T01:40:39.358Z,4.07
2023-05-13T01:43:42.579Z,3.88
2023-05-13T01:46:45.488Z,3.58
2023-05-13T01:49:48.427Z,3.70
2023-05-13T01:52:52.412Z,3.30
2023-05-13T01:55:54.630Z,3.00
2023-05-13T01:58:57.238Z,3.45
2023-05-13T02:02:00.563Z,3.70
2023-05-13T02:05:03.029Z,3.38
2023-05-13T02:08:07.706Z,3.72
2023-05-13T02:11:09.937Z,3.88
2023-05-13T02:14:12.453Z,3.25
2023-05-13T02:17:14.803Z,3.58
2023-05-13T02:20:18.242Z,3.28
2023-05-13T02:23:21.841Z,3.65
2023-05-13T02:26:24.299Z,3.88
2023-05-13T02:29:26.711Z,4.07
2023-05-13T02:32:29.273Z,3.88
2023-05-13T02:35:31.602Z,3.10
2023-05-13T02:38:37.316Z,3.75
2023-05-13T02:41:41.233Z,3.50
2023-05-13T02:44:43.513Z,3.97
2023-05-13T02:47:47.978Z,4.18
2023-05-13T02:50:50.308Z,4.05
2023-05-13T02:53:53.921Z,3.90
2023-05-13T02:56:56.383Z,3.90
2023-05-13T02:59:58.738Z,3.42
2023-05-13T03:03:00.977Z,3.65
2023-05-13T03:06:03.527Z,4.20
2023-05-13T03:09:07.191Z,3.47
2023-05-13T03:12:09.591Z,3.55
2023-05-13T03:15:14.274Z,3.75
2023-05-13T03:18:18.485Z,4.10
2023-05-13T03:21:21.153Z,4.45
2023-05-13T03:24:24.881Z,3.60
2023-05-13T03:27:30.011Z,4.20
2023-05-13T03:30:32.286Z,4.22
2023-05-13T03:33:40.366Z,4.68
2023-05-13T03:36:42.890Z,4.68
2023-05-13T03:39:47.362Z,4.60
2023-05-13T03:42:50.420Z,4.10
2023-05-13T03:45:53.889Z,5.05
2023-05-13T03:48:58.038Z,5.18
2023-05-13T03:52:03.608Z,5.05
2023-05-13T03:55:08.464Z,5.07
2023-05-13T03:58:12.136Z,4.63
2023-05-13T04:01:14.477Z,5.28
2023-05-13T04:04:16.703Z,5.10
2023-05-13T04:07:19.023Z,5.22
2023-05-13T04:10:22.810Z,5.25
2023-05-13T04:13:26.633Z,5.40
2023-05-13T04:16:29.422Z,5.82
2023-05-13T04:19:31.710Z,5.35
2023-05-13T04:22:34.879Z,5.80
2023-05-13T04:25:38.523Z,6.90
2023-05-13T04:28:41.031Z,6.03
2023-05-13T04:31:43.350Z,5.60
2023-05-13T04:34:47.157Z,5.50
2023-05-13T04:37:50.758Z,5.32
2023-05-13T04:40:55.582Z,5.55
2023-05-13T04:44:07.016Z,5.28
2023-05-13T04:47:09.584Z,5.20
2023-05-13T04:50:13.552Z,5.00
2023-05-13T04:53:16.279Z,4.80
2023-05-13T04:56:21.801Z,4.57
2023-05-13T04:59:24.519Z,5.13
2023-05-13T05:02:26.947Z,4.35
2023-05-13T05:05:31.011Z,4.32
2023-05-13T05:08:33.793Z,4.68
2023-05-13T05:11:38.027Z,3.45
2023-05-13T05:14:40.674Z,4.20
2023-05-13T05:17:45.391Z,3.90
2023-05-13T05:20:47.867Z,3.80
2023-05-13T05:23:52.590Z,3.85
2023-05-13T05:26:56.910Z,3.53
2023-05-13T05:29:59.543Z,3.83
2023-05-13T05:33:02.285Z,3.63
2023-05-13T05:36:07.376Z,4.07
2023-05-13T05:39:10.932Z,4.30
2023-05-13T05:42:17.761Z,3.33
2023-05-13T05:45:20.242Z,3.53
2023-05-13T05:48:22.824Z,3.20
2023-05-13T05:51:25.484Z,2.65
2023-05-13T05:54:27.923Z,3.00
2023-05-13T05:57:31.833Z,2.70
2023-05-13T06:00:34.168Z,3.20
2023-05-13T06:03:36.595Z,3.10
2023-05-13T06:06:40.473Z,2.92
2023-05-13T06:09:43.085Z,2.92
2023-05-13T06:12:47.246Z,2.55
2023-05-13T06:15:49.476Z,2.65
2023-05-13T06:18:51.801Z,2.35
2023-05-13T06:22:00.928Z,2.50
2023-05-13T06:25:05.943Z,2.55
2023-05-13T06:28:11.014Z,2.40
2023-05-13T06:31:13.322Z,1.98
2023-05-13T06:34:16.674Z,2.22
2023-05-13T06:37:19.626Z,2.38
2023-05-13T06:40:24.625Z,2.05
2023-05-13T06:43:28.663Z,1.95
2023-05-13T06:46:34.139Z,2.03
2023-05-13T06:49:36.869Z,1.98
2023-05-13T06:52:41.999Z,2.00
2023-05-13T06:55:44.485Z,1.80
2023-05-13T06:58:48.185Z,1.63
2023-05-13T07:01:51.185Z,1.42
2023-05-13T07:04:53.421Z,1.20
2023-05-13T07:07:55.692Z,1.08
2023-05-13T07:10:57.924Z,1.40
2023-05-13T07:14:01.591Z,0.90
2023-05-13T07:17:04.258Z,1.00
2023-05-13T07:20:08.128Z,0.98
2023-05-13T07:23:10.354Z,0.80
2023-05-13T07:26:12.587Z,0.80
2023-05-13T07:29:16.152Z,0.70
2023-05-13T07:32:18.548Z,0.80
2023-05-13T07:35:21.088Z,0.70
2023-05-13T07:38:23.687Z,0.88
2023-05-13T07:41:30.200Z,0.70
2023-05-13T07:44:33.744Z,0.65
2023-05-13T07:47:36.234Z,0.90
2023-05-13T07:50:39.051Z,0.82
2023-05-13T07:53:46.929Z,0.95
2023-05-13T07:56:49.244Z,0.80
2023-05-13T07:59:54.158Z,0.82
2023-05-13T08:02:56.555Z,0.80
2023-05-13T08:05:59.630Z,0.80
2023-05-13T08:09:02.007Z,0.85
2023-05-13T08:12:06.380Z,0.70
2023-05-13T08:15:12.043Z,0.80
2023-05-13T08:18:15.343Z,0.90
2023-05-13T08:21:17.510Z,1.10
2023-05-13T08:24:19.644Z,0.80
2023-05-13T08:27:21.787Z,0.82
2023-05-13T08:30:25.387Z,0.80
2023-05-13T08:33:27.542Z,0.90
2023-05-13T08:36:29.816Z,0.80
2023-05-13T08:39:32.047Z,0.82
2023-05-13T08:42:38.291Z,0.95
2023-05-13T08:45:42.450Z,1.33
2023-05-13T08:48:45.037Z,0.65
2023-05-13T08:51:47.452Z,0.70
2023-05-13T08:54:49.984Z,0.70
2023-05-13T08:57:54.704Z,0.73
2023-05-13T09:00:58.771Z,0.90
2023-05-13T09:04:02.586Z,1.05
2023-05-13T09:07:05.113Z,0.80
2023-05-13T09:10:08.476Z,0.80
2023-05-13T09:13:11.805Z,0.80
2023-05-13T09:16:16.446Z,0.90
2023-05-13T09:19:18.942Z,0.80
2023-05-13T09:22:21.254Z,0.70
2023-05-13T09:25:24.749Z,0.70
2023-05-13T09:28:27.364Z,1.15
2023-05-13T09:31:34.245Z,0.70
2023-05-13T09:34:36.559Z,0.70
2023-05-13T09:37:41.828Z,0.60
2023-05-13T09:40:50.969Z,0.50
2023-05-13T09:43:53.266Z,0.70
2023-05-13T09:46:57.012Z,0.80
2023-05-13T09:50:03.120Z,0.70
2023-05-13T09:53:10.868Z,0.80
2023-05-13T09:56:13.089Z,0.80
2023-05-13T09:59:15.553Z,0.80
2023-05-13T10:02:19.283Z,0.60
2023-05-13T10:05:22.546Z,0.68
2023-05-13T10:08:24.960Z,0.70
2023-05-13T10:11:27.853Z,0.80
2023-05-13T10:14:30.821Z,0.90
2023-05-13T10:17:35.715Z,0.77
2023-05-13T10:20:38.577Z,1.05
2023-05-13T10:23:41.076Z,0.80
2023-05-13T10:26:43.733Z,0.90
2023-05-13T10:29:46.911Z,1.08
2023-05-13T10:32:50.849Z,1.13
2023-05-13T10:36:03.784Z,0.80
2023-05-13T10:39:37.983Z,0.90
2023-05-13T10:42:43.770Z,1.00
2023-05-13T10:45:47.211Z,0.95
2023-05-13T10:48:56.059Z,1.00
2023-05-13T10:52:04.180Z,1.30
2023-05-13T10:55:23.456Z,1.30
2023-05-13T10:58:29.544Z,1.10
2023-05-13T11:01:35.633Z,1.10
2023-05-13T11:04:57.985Z,1.10
2023-05-13T11:08:00.187Z,0.90
2023-05-13T11:11:02.670Z,1.10
2023-05-13T11:14:14.409Z,1.00
2023-05-13T11:17:19.969Z,1.05
2023-05-13T11:20:24.650Z,1.10
2023-05-13T11:23:27.003Z,0.90
2023-05-13T11:26:44.372Z,1.10
2023-05-13T11:29:50.803Z,0.90
2023-05-13T11:32:54.263Z,1.13
2023-05-13T11:35:58.016Z,0.50
2023-05-13T11:39:05.918Z,0.32
2023-05-13T11:42:09.226Z,0.30
2023-05-13T11:45:11.464Z,0.40
2023-05-13T11:48:20.345Z,0.45
2023-05-13T11:51:25.281Z,0.50
2023-05-13T11:54:28.042Z,0.50
2023-05-13T11:57:34.354Z,0.40
2023-05-13T12:00:36.558Z,0.50
2023-05-13T12:03:38.730Z,0.50
2023-05-13T12:06:45.886Z,0.57
2023-05-13T12:09:48.481Z,0.50
2023-05-13T12:12:50.783Z,0.50
2023-05-13T12:15:53.492Z,0.50
2023-05-13T12:18:59.103Z,0.57
2023-05-13T12:22:04.765Z,0.50
2023-05-13T12:25:42.805Z,0.60
2023-05-13T12:28:45.077Z,0.50
2023-05-13T12:32:04.083Z,0.47
2023-05-13T12:35:12.557Z,0.60
2023-05-13T12:38:19.990Z,0.50
2023-05-13T12:41:22.796Z,0.50
2023-05-13T12:44:26.694Z,0.50
2023-05-13T12:47:29.134Z,0.40
2023-05-13T12:50:31.580Z,0.70
2023-05-13T12:53:35.118Z,0.52
2023-05-13T12:56:37.721Z,0.50
2023-05-13T12:59:39.936Z,0.40
2023-05-13T13:02:42.200Z,0.50
2023-05-13T13:05:44.516Z,0.40
2023-05-13T13:08:48.070Z,0.40
2023-05-13T13:11:50.251Z,0.40
2023-05-13T13:14:52.457Z,0.28
2023-05-13T13:17:54.744Z,0.32
2023-05-13T13:20:57.071Z,0.30
2023-05-13T13:24:00.958Z,0.35
2023-05-13T13:27:03.201Z,0.40
2023-05-13T13:30:07.869Z,0.40
2023-05-13T13:33:12.186Z,0.40
2023-05-13T13:36:16.896Z,0.40
2023-05-13T13:39:21.057Z,0.30
2023-05-13T13:42:26.692Z,0.40
2023-05-13T13:45:33.433Z,0.40
2023-05-13T13:48:35.889Z,0.43
2023-05-13T13:51:38.349Z,0.30
2023-05-13T13:54:43.642Z,0.30
2023-05-13T13:57:46.002Z,0.20
2023-05-13T14:00:51.901Z,0.28
2023-05-13T14:04:10.482Z,0.30
2023-05-13T14:07:12.764Z,0.40
2023-05-13T14:10:16.422Z,0.40
2023-05-13T14:13:18.652Z,0.40
2023-05-13T14:16:20.906Z,0.50
2023-05-13T14:19:24.070Z,0.30
2023-05-13T14:22:26.309Z,0.40
2023-05-13T14:25:29.941Z,0.30
2023-05-13T14:28:33.364Z,0.40
2023-05-13T14:31:36.014Z,0.30
2023-05-13T14:34:38.272Z,0.40
2023-05-13T14:37:40.876Z,0.40
2023-05-13T14:40:47.176Z,0.47
2023-05-13T14:43:49.597Z,0.40
2023-05-13T14:46:57.632Z,0.47
2023-05-13T14:49:59.900Z,0.47
2023-05-13T14:53:02.120Z,0.40
2023-05-13T14:56:06.409Z,0.40
2023-05-13T14:59:08.797Z,0.60
2023-05-13T15:02:11.142Z,0.40
2023-05-13T15:05:13.600Z,0.50
2023-05-13T15:08:16.563Z,0.50
2023-05-13T15:11:20.877Z,0.32
2023-05-13T15:14:25.632Z,0.40
2023-05-13T15:17:29.144Z,0.40
2023-05-13T15:20:31.386Z,0.88
2023-05-13T15:23:33.811Z,0.35
2023-05-13T15:26:37.395Z,0.40
2023-05-13T15:29:41.051Z,0.30
2023-05-13T15:32:43.327Z,0.40
2023-05-13T15:35:45.791Z,0.60
2023-05-13T15:38:48.097Z,0.40
2023-05-13T15:41:51.891Z,0.40
2023-05-13T15:44:54.130Z,0.40
2023-05-13T15:47:56.502Z,0.45
2023-05-13T15:50:58.973Z,0.40
2023-05-13T15:54:01.415Z,0.50
2023-05-13T15:57:05.388Z,0.63
2023-05-13T16:00:09.531Z,0.50
2023-05-13T16:03:11.744Z,0.40
2023-05-13T16:06:14.164Z,0.40
2023-05-13T16:09:16.572Z,0.60
2023-05-13T16:12:20.832Z,0.63
2023-05-13T16:15:23.250Z,0.50
2023-05-13T16:18:25.538Z,0.70
2023-05-13T16:21:27.821Z,0.65
2023-05-13T16:24:30.063Z,0.60
2023-05-13T16:27:34.479Z,0.30
2023-05-13T16:30:37.660Z,0.65
2023-05-13T16:33:40.694Z,0.57
2023-05-13T16:36:43.047Z,0.30
2023-05-13T16:39:45.832Z,0.40
2023-05-13T16:42:49.398Z,0.47
2023-05-13T16:45:51.642Z,0.40
2023-05-13T16:48:53.963Z,0.50
2023-05-13T16:51:56.314Z,0.60
2023-05-13T16:54:59.183Z,0.50
2023-05-13T16:58:03.067Z,0.50
2023-05-13T17:01:06.039Z,0.55
2023-05-13T17:04:08.429Z,0.80
2023-05-13T17:07:10.713Z,0.70
2023-05-13T17:10:13.020Z,1.80
2023-05-13T17:13:17.012Z,0.50
2023-05-13T17:16:19.323Z,0.55
2023-05-13T17:19:21.748Z,0.60
2023-05-13T17:22:25.531Z,0.60
2023-05-13T17:25:27.868Z,0.70
2023-05-13T17:28:33.633Z,0.70
2023-05-13T17:31:35.995Z,0.50
2023-05-13T17:34:38.456Z,0.50
2023-05-13T17:37:40.868Z,0.60
2023-05-13T17:40:43.193Z,0.65
2023-05-13T17:43:46.804Z,0.50
2023-05-13T17:46:49.137Z,0.60
2023-05-13T17:49:51.526Z,0.70
2023-05-13T17:52:53.899Z,0.70
2023-05-13T17:55:56.262Z,0.60
2023-05-13T17:58:59.926Z,0.60
2023-05-13T18:02:02.408Z,0.50
2023-05-13T18:05:05.885Z,0.60
2023-05-13T18:08:08.180Z,0.55
2023-05-13T18:11:10.487Z,0.40
2023-05-13T18:14:14.324Z,0.55
2023-05-13T18:17:17.119Z,0.60
2023-05-13T18:20:19.756Z,0.50
2023-05-13T18:23:22.325Z,0.60
2023-05-13T18:26:24.751Z,0.70
2023-05-13T18:29:28.350Z,0.60
2023-05-13T18:32:30.965Z,0.60
2023-05-13T18:35:33.275Z,0.60
2023-05-13T18:38:35.549Z,0.50
2023-05-13T18:41:37.787Z,0.60
2023-05-13T18:44:41.386Z,0.70
2023-05-13T18:47:43.743Z,0.60
2023-05-13T18:50:46.879Z,0.60
2023-05-13T18:53:49.230Z,0.68
2023-05-13T18:56:51.508Z,0.70
2023-05-13T18:59:55.274Z,0.70
2023-05-13T19:02:57.655Z,0.80
2023-05-13T19:06:00.198Z,0.70
2023-05-13T19:09:02.981Z,0.70
2023-05-13T19:12:05.474Z,0.60
2023-05-13T19:15:10.207Z,0.80
2023-05-13T19:18:12.475Z,0.70
2023-05-13T19:21:14.786Z,0.70
2023-05-13T19:24:17.093Z,1.10
2023-05-13T19:27:19.413Z,0.85
2023-05-13T19:30:23.346Z,0.70
2023-05-13T19:33:26.177Z,0.80
2023-05-13T19:36:28.430Z,0.80
2023-05-13T19:39:30.685Z,1.30
2023-05-13T19:42:32.959Z,0.63
2023-05-13T19:45:36.647Z,0.70
2023-05-13T19:48:38.902Z,1.33
2023-05-13T19:51:42.057Z,1.40
2023-05-13T19:54:44.410Z,1.10
2023-05-13T19:57:47.654Z,0.80
2023-05-13T20:00:51.803Z,1.00
2023-05-13T20:03:55.407Z,1.20
2023-05-13T20:06:58.219Z,0.90
2023-05-13T20:10:01.217Z,1.27
2023-05-13T20:13:04.902Z,1.02
2023-05-13T20:16:08.689Z,1.33
2023-05-13T20:19:11.243Z,1.00
2023-05-13T20:22:13.647Z,1.60
2023-05-13T20:25:16.628Z,1.50
2023-05-13T20:28:18.926Z,0.90
2023-05-13T20:31:22.661Z,1.25
2023-05-13T20:34:24.883Z,1.40
2023-05-13T20:37:28.427Z,1.00
2023-05-13T20:40:30.885Z,1.40
2023-05-13T20:43:34.589Z,1.35
2023-05-13T20:46:38.329Z,1.27
2023-05-13T20:49:43.813Z,1.40
2023-05-13T20:52:46.869Z,1.30
2023-05-13T20:55:49.066Z,1.40
2023-05-13T20:58:51.912Z,0.98
2023-05-13T21:01:55.631Z,1.50
2023-05-13T21:04:57.965Z,1.50
2023-05-13T21:08:00.239Z,1.50
2023-05-13T21:11:04.033Z,1.63
2023-05-13T21:14:06.354Z,1.70
2023-05-13T21:17:10.029Z,1.55
2023-05-13T21:20:13.167Z,1.40
2023-05-13T21:23:15.820Z,1.48
2023-05-13T21:26:18.157Z,1.20
2023-05-13T21:29:20.432Z,1.20
2023-05-13T21:32:24.277Z,1.42
2023-05-13T21:35:26.616Z,1.42
2023-05-13T21:38:29.035Z,1.27
2023-05-13T21:41:31.383Z,1.60
2023-05-13T21:44:33.715Z,1.77
2023-05-13T21:47:37.321Z,1.80
2023-05-13T21:50:39.742Z,1.10
2023-05-13T21:53:43.133Z,1.50
2023-05-13T21:56:46.396Z,1.63
2023-05-13T21:59:48.815Z,1.63
2023-05-13T22:02:52.679Z,1.23
2023-05-13T22:05:55.007Z,1.90
2023-05-13T22:08:57.326Z,1.80
2023-05-13T22:11:59.683Z,1.67
2023-05-13T22:15:02.091Z,1.33
2023-05-13T22:18:06.061Z,1.63
2023-05-13T22:21:08.474Z,2.28
2023-05-13T22:24:10.800Z,1.50
2023-05-13T22:27:13.143Z,1.45
2023-05-13T22:30:15.677Z,1.58
2023-05-13T22:33:19.369Z,1.50
2023-05-13T22:36:21.676Z,1.77
2023-05-13T22:39:25.808Z,1.90
2023-05-13T22:42:28.188Z,1.70
2023-05-13T22:45:30.525Z,1.95
2023-05-13T22:48:34.056Z,1.73
2023-05-13T22:51:36.366Z,1.80
2023-05-13T22:54:38.719Z,1.85
2023-05-13T22:57:40.966Z,2.22
2023-05-13T23:00:43.284Z,1.83
2023-05-13T23:03:46.876Z,2.40
2023-05-13T23:06:49.175Z,2.40
2023-05-13T23:09:51.353Z,2.17
2023-05-13T23:12:53.602Z,1.75
2023-05-13T23:15:55.958Z,2.08
2023-05-13T23:18:59.649Z,2.13
2023-05-13T23:22:02.114Z,2.10
2023-05-13T23:25:05.079Z,1.90
2023-05-13T23:28:07.391Z,2.03
2023-05-13T23:31:09.662Z,2.17
2023-05-13T23:34:13.366Z,2.00
2023-05-13T23:37:15.695Z,2.20
2023-05-13T23:40:18.336Z,1.90
2023-05-13T23:43:20.652Z,2.08
2023-05-13T23:46:23.073Z,2.70
2023-05-13T23:49:26.667Z,2.30
2023-05-13T23:52:28.940Z,2.10
2023-05-13T23:55:31.140Z,1.90
2023-05-13T23:58:33.532Z,2.15
